createdAt,value
2018-03-18T00:01:42.241Z,5.10
2018-03-18T00:04:11.026Z,5.82
2018-03-18T00:06:39.810Z,5.50
2018-03-18T00:09:08.602Z,5.72
2018-03-18T00:11:37.379Z,6.10
2018-03-18T00:14:06.192Z,5.78
2018-03-18T00:16:34.987Z,6.30
2018-03-18T00:19:03.768Z,5.85
2018-03-18T00:21:32.551Z,6.15
2018-03-18T00:24:01.353Z,5.55
2018-03-18T00:26:30.129Z,5.12
2018-03-18T00:28:58.919Z,6.90
2018-03-18T00:31:27.738Z,5.68
2018-03-18T00:33:56.550Z,10.95
2018-03-18T00:36:25.314Z,5.65
2018-03-18T00:38:54.102Z,6.35
2018-03-18T00:41:22.883Z,5.45
2018-03-18T00:43:51.671Z,5.62
2018-03-18T00:46:20.461Z,6.03
2018-03-18T00:48:49.246Z,5.35
2018-03-18T00:51:23.727Z,7.25
2018-03-18T00:53:52.518Z,5.75
2018-03-18T00:56:21.304Z,5.55
2018-03-18T00:58:50.099Z,6.43
2018-03-18T01:01:18.945Z,5.50
2018-03-18T01:03:47.670Z,5.18
2018-03-18T01:06:16.455Z,5.62
2018-03-18T01:08:45.255Z,5.60
2018-03-18T01:11:14.170Z,6.50
2018-03-18T01:13:42.938Z,5.65
2018-03-18T01:16:11.718Z,5.57
2018-03-18T01:18:40.587Z,6.10
2018-03-18T01:21:09.374Z,5.80
2018-03-18T01:23:38.166Z,5.65
2018-03-18T01:26:06.955Z,5.60
2018-03-18T01:28:35.783Z,6.05
2018-03-18T01:31:04.567Z,5.72
2018-03-18T01:33:33.350Z,5.53
2018-03-18T01:36:02.162Z,6.12
2018-03-18T01:38:30.949Z,6.62
2018-03-18T01:40:59.762Z,5.95
2018-03-18T01:43:28.539Z,6.03
2018-03-18T01:45:57.317Z,5.15
2018-03-18T01:48:26.125Z,6.45
2018-03-18T01:50:54.934Z,5.85
2018-03-18T01:53:23.742Z,5.70
2018-03-18T01:55:52.535Z,5.50
2018-03-18T01:58:21.319Z,6.87
2018-03-18T02:00:50.110Z,6.53
2018-03-18T02:03:18.898Z,5.90
2018-03-18T02:05:47.721Z,5.87
2018-03-18T02:08:16.490Z,6.53
2018-03-18T02:10:45.278Z,6.12
2018-03-18T02:13:14.071Z,5.65
2018-03-18T02:15:42.899Z,5.87
2018-03-18T02:18:11.665Z,7.07
2018-03-18T02:20:40.489Z,6.65
2018-03-18T02:23:09.262Z,6.10
2018-03-18T02:25:38.051Z,6.93
2018-03-18T02:28:06.846Z,5.93
2018-03-18T02:30:35.634Z,6.10
2018-03-18T02:33:04.420Z,5.97
2018-03-18T02:35:33.210Z,7.10
2018-03-18T02:38:02.035Z,6.32
2018-03-18T02:40:30.817Z,4.75
2018-03-18T02:42:59.606Z,6.32
2018-03-18T02:45:28.418Z,6.95
2018-03-18T02:47:57.203Z,6.28
2018-03-18T02:50:26.011Z,6.43
2018-03-18T02:52:54.825Z,6.75
2018-03-18T02:55:23.619Z,5.95
2018-03-18T02:57:52.410Z,6.07
2018-03-18T03:00:21.207Z,5.97
2018-03-18T03:02:50.009Z,6.62
2018-03-18T03:05:18.801Z,6.25
2018-03-18T03:07:47.582Z,6.60
2018-03-18T03:10:16.370Z,5.47
2018-03-18T03:12:45.158Z,7.00
2018-03-18T03:15:13.954Z,7.00
2018-03-18T03:17:42.739Z,6.43
2018-03-18T03:20:11.532Z,6.68
2018-03-18T03:22:40.314Z,6.78
2018-03-18T03:25:09.122Z,5.57
2018-03-18T03:27:37.906Z,6.75
2018-03-18T03:30:06.705Z,6.57
2018-03-18T03:32:35.483Z,5.90
2018-03-18T03:35:04.274Z,7.53
2018-03-18T03:37:33.050Z,6.47
2018-03-18T03:40:01.866Z,6.32
2018-03-18T03:42:30.626Z,7.05
2018-03-18T03:44:59.424Z,6.53
2018-03-18T03:47:28.198Z,5.78
2018-03-18T03:49:56.990Z,6.85
2018-03-18T03:52:25.774Z,6.65
2018-03-18T03:54:54.578Z,6.47
2018-03-18T03:57:23.358Z,6.95
2018-03-18T03:59:52.169Z,6.93
2018-03-18T04:02:20.938Z,6.97
2018-03-18T04:04:49.722Z,7.70
2018-03-18T04:07:18.509Z,6.47
2018-03-18T04:09:47.302Z,6.62
2018-03-18T04:12:16.082Z,7.43
2018-03-18T04:14:44.878Z,6.50
2018-03-18T04:17:13.669Z,7.12
2018-03-18T04:19:42.469Z,5.15
2018-03-18T04:22:11.262Z,7.20
2018-03-18T04:24:40.038Z,6.28
2018-03-18T04:27:08.821Z,5.90
2018-03-18T04:29:37.606Z,7.72
2018-03-18T04:32:06.397Z,7.35
2018-03-18T04:34:35.182Z,6.85
2018-03-18T04:37:03.990Z,6.78
2018-03-18T04:39:32.802Z,6.62
2018-03-18T04:42:01.587Z,6.57
2018-03-18T04:44:30.382Z,7.87
2018-03-18T04:46:59.166Z,7.12
2018-03-18T04:49:27.949Z,6.30
2018-03-18T04:51:56.747Z,6.55
2018-03-18T04:54:25.531Z,6.05
2018-03-18T04:56:54.331Z,5.80
2018-03-18T04:59:23.149Z,7.25
2018-03-18T05:01:51.927Z,6.72
2018-03-18T05:04:20.711Z,6.90
2018-03-18T05:06:49.523Z,7.20
2018-03-18T05:09:18.285Z,7.43
2018-03-18T05:11:47.082Z,7.68
2018-03-18T05:14:15.870Z,7.25
2018-03-18T05:16:44.671Z,6.75
2018-03-18T05:19:13.504Z,6.55
2018-03-18T05:21:42.283Z,6.35
2018-03-18T05:24:11.118Z,6.03
2018-03-18T05:26:39.906Z,7.07
2018-03-18T05:29:08.685Z,5.72
2018-03-18T05:31:37.483Z,6.75
2018-03-18T05:34:06.266Z,6.72
2018-03-18T05:36:35.057Z,7.15
2018-03-18T05:39:03.854Z,6.53
2018-03-18T05:41:32.646Z,6.72
2018-03-18T05:44:01.434Z,6.50
2018-03-18T05:46:30.222Z,5.75
2018-03-18T05:48:59.005Z,7.37
2018-03-18T05:51:27.793Z,6.18
2018-03-18T05:53:56.573Z,5.18
2018-03-18T05:56:25.366Z,7.37
2018-03-18T05:58:54.154Z,6.82
2018-03-18T06:01:22.942Z,6.32
2018-03-18T06:03:51.726Z,7.40
2018-03-18T06:06:20.515Z,6.28
2018-03-18T06:08:49.306Z,6.72
2018-03-18T06:11:18.099Z,7.05
2018-03-18T06:13:46.882Z,7.10
2018-03-18T06:16:15.671Z,6.78
2018-03-18T06:18:44.498Z,6.82
2018-03-18T06:21:13.296Z,6.78
2018-03-18T06:23:42.073Z,6.15
2018-03-18T06:26:10.870Z,5.95
2018-03-18T06:28:39.665Z,6.40
2018-03-18T06:31:08.466Z,5.82
2018-03-18T06:33:37.266Z,5.53
2018-03-18T06:36:06.057Z,5.95
2018-03-18T06:38:34.852Z,6.78
2018-03-18T06:41:03.638Z,6.40
2018-03-18T06:43:32.434Z,6.65
2018-03-18T06:46:01.226Z,7.00
2018-03-18T06:48:30.043Z,6.97
2018-03-18T06:50:58.830Z,7.28
2018-03-18T06:53:27.622Z,7.18
2018-03-18T06:55:56.406Z,6.80
2018-03-18T06:58:25.202Z,5.97
2018-03-18T07:00:54.035Z,6.50
2018-03-18T07:03:22.817Z,6.25
2018-03-18T07:05:51.622Z,5.90
2018-03-18T07:08:20.418Z,6.72
2018-03-18T07:10:49.212Z,6.40
2018-03-18T07:13:17.991Z,6.35
2018-03-18T07:15:46.790Z,6.53
2018-03-18T07:18:15.578Z,5.45
2018-03-18T07:20:44.375Z,6.32
2018-03-18T07:23:13.158Z,6.80
2018-03-18T07:25:41.962Z,5.60
2018-03-18T07:28:10.746Z,6.47
2018-03-18T07:30:39.537Z,5.45
2018-03-18T07:33:08.330Z,6.10
2018-03-18T07:35:37.114Z,5.75
2018-03-18T07:38:05.918Z,5.53
2018-03-18T07:40:34.690Z,5.45
2018-03-18T07:43:03.478Z,5.90
2018-03-18T07:45:32.263Z,6.07
2018-03-18T07:48:01.120Z,5.00
2018-03-18T07:50:29.926Z,6.60
2018-03-18T07:52:58.678Z,6.10
2018-03-18T07:55:27.468Z,6.18
2018-03-18T07:57:56.263Z,6.07
2018-03-18T08:00:25.063Z,5.78
2018-03-18T08:02:53.846Z,5.78
2018-03-18T08:05:22.686Z,5.47
2018-03-18T08:07:51.486Z,6.45
2018-03-18T08:10:20.266Z,4.70
2018-03-18T08:12:49.058Z,5.90
2018-03-18T08:15:17.842Z,6.65
2018-03-18T08:17:46.643Z,5.12
2018-03-18T08:20:15.419Z,5.30
2018-03-18T08:22:44.206Z,4.90
2018-03-18T08:25:12.995Z,5.90
2018-03-18T08:27:41.782Z,5.87
2018-03-18T08:30:10.574Z,6.03
2018-03-18T08:32:39.377Z,5.78
2018-03-18T08:35:08.159Z,5.72
2018-03-18T08:37:36.958Z,5.43
2018-03-18T08:40:05.747Z,4.57
2018-03-18T08:42:34.653Z,5.80
2018-03-18T08:45:03.431Z,5.00
2018-03-18T08:47:32.215Z,5.00
2018-03-18T08:50:00.997Z,4.50
2018-03-18T08:52:29.786Z,4.30
2018-03-18T08:54:58.561Z,4.60
2018-03-18T08:57:27.352Z,5.07
2018-03-18T08:59:56.138Z,5.57
2018-03-18T09:02:24.935Z,5.05
2018-03-18T09:04:53.719Z,4.53
2018-03-18T09:07:22.554Z,4.28
2018-03-18T09:09:51.350Z,5.65
2018-03-18T09:12:20.138Z,5.12
2018-03-18T09:14:48.930Z,4.35
2018-03-18T09:17:17.714Z,4.70
2018-03-18T09:19:46.501Z,4.20
2018-03-18T09:22:15.294Z,4.70
2018-03-18T09:24:44.078Z,5.07
2018-03-18T09:27:12.873Z,5.12
2018-03-18T09:29:41.655Z,4.50
2018-03-18T09:32:10.478Z,4.90
2018-03-18T09:34:39.259Z,3.17
2018-03-18T09:37:08.059Z,4.35
2018-03-18T09:39:36.843Z,4.43
2018-03-18T09:42:05.634Z,4.50
2018-03-18T09:44:34.417Z,4.15
2018-03-18T09:47:03.207Z,5.10
2018-03-18T09:49:31.986Z,4.35
2018-03-18T09:52:00.786Z,4.30
2018-03-18T09:54:29.550Z,3.58
2018-03-18T09:56:58.338Z,4.15
2018-03-18T09:59:27.203Z,4.62
2018-03-18T10:01:55.994Z,4.28
2018-03-18T10:04:24.795Z,3.72
2018-03-18T10:06:53.574Z,3.83
2018-03-18T10:09:22.354Z,4.22
2018-03-18T10:11:51.144Z,3.58
2018-03-18T10:14:20.303Z,3.97
2018-03-18T10:16:49.070Z,4.20
2018-03-18T10:19:17.860Z,3.83
2018-03-18T10:21:46.652Z,3.75
2018-03-18T10:24:15.430Z,3.97
2018-03-18T10:26:44.235Z,3.22
2018-03-18T10:29:13.014Z,3.75
2018-03-18T10:31:41.806Z,4.28
2018-03-18T10:34:10.591Z,4.45
2018-03-18T10:36:39.386Z,3.65
2018-03-18T10:39:08.170Z,3.50
2018-03-18T10:41:36.999Z,3.62
2018-03-18T10:44:05.774Z,3.35
2018-03-18T10:46:34.566Z,3.72
2018-03-18T10:49:03.351Z,3.67
2018-03-18T10:51:32.178Z,3.17
2018-03-18T10:54:00.954Z,3.35
2018-03-18T10:56:29.756Z,3.50
2018-03-18T10:58:58.526Z,3.40
2018-03-18T11:01:33.287Z,3.25
2018-03-18T11:04:07.788Z,3.90
2018-03-18T11:06:36.563Z,3.17
2018-03-18T11:09:05.358Z,3.83
2018-03-18T11:11:34.146Z,3.62
2018-03-18T11:14:02.931Z,3.33
2018-03-18T11:16:31.711Z,3.30
2018-03-18T11:19:00.497Z,3.58
2018-03-18T11:21:29.279Z,3.72
2018-03-18T11:23:58.084Z,3.37
2018-03-18T11:26:26.866Z,3.35
2018-03-18T11:28:55.650Z,3.67
2018-03-18T11:31:24.452Z,3.35
2018-03-18T11:33:53.270Z,3.75
2018-03-18T11:36:22.050Z,3.12
2018-03-18T11:38:50.854Z,3.33
2018-03-18T11:41:19.635Z,3.33
2018-03-18T11:43:48.435Z,3.35
2018-03-18T11:46:17.275Z,3.35
2018-03-18T11:48:46.061Z,2.85
2018-03-18T11:51:14.854Z,3.45
2018-03-18T11:53:43.633Z,3.22
2018-03-18T11:56:12.422Z,3.33
2018-03-18T11:58:41.198Z,3.08
2018-03-18T12:01:10.001Z,3.10
2018-03-18T12:03:38.786Z,3.28
2018-03-18T12:06:07.557Z,3.62
2018-03-18T12:08:42.302Z,3.17
2018-03-18T12:11:11.094Z,2.95
2018-03-18T12:13:39.873Z,3.40
2018-03-18T12:16:08.659Z,3.10
2018-03-18T12:18:37.442Z,3.12
2018-03-18T12:21:06.232Z,3.62
2018-03-18T12:23:35.015Z,3.78
2018-03-18T12:26:03.821Z,3.95
2018-03-18T12:28:32.603Z,3.58
2018-03-18T12:31:01.394Z,3.58
2018-03-18T12:33:30.174Z,3.08
2018-03-18T12:35:58.986Z,3.15
2018-03-18T12:38:27.769Z,2.60
2018-03-18T12:40:56.554Z,3.45
2018-03-18T12:43:27.242Z,3.65
2018-03-18T12:45:56.038Z,3.00
2018-03-18T12:48:24.844Z,3.05
2018-03-18T12:50:53.642Z,3.10
2018-03-18T12:53:22.430Z,3.80
2018-03-18T12:55:51.236Z,3.62
2018-03-18T12:58:20.146Z,3.62
2018-03-18T13:00:48.832Z,3.40
2018-03-18T13:03:17.612Z,2.90
2018-03-18T13:05:46.386Z,2.67
2018-03-18T13:08:15.177Z,2.70
2018-03-18T13:10:43.975Z,3.12
2018-03-18T13:13:12.762Z,3.47
2018-03-18T13:15:41.538Z,3.22
2018-03-18T13:18:10.330Z,3.10
2018-03-18T13:20:39.110Z,3.03
2018-03-18T13:23:07.898Z,3.05
2018-03-18T13:25:36.703Z,2.97
2018-03-18T13:28:05.497Z,3.12
2018-03-18T13:30:34.301Z,3.08
2018-03-18T13:33:03.091Z,3.40
2018-03-18T13:35:31.875Z,3.03
2018-03-18T13:38:00.666Z,2.95
2018-03-18T13:40:29.867Z,2.65
2018-03-18T13:42:58.858Z,3.30
2018-03-18T13:45:27.643Z,2.80
2018-03-18T13:47:56.433Z,3.05
2018-03-18T13:50:25.211Z,3.35
2018-03-18T13:52:54.002Z,2.60
2018-03-18T13:55:22.778Z,3.00
2018-03-18T13:57:51.569Z,2.75
2018-03-18T14:00:20.414Z,3.28
2018-03-18T14:02:49.150Z,3.28
2018-03-18T14:05:17.936Z,2.83
2018-03-18T14:07:46.726Z,3.30
2018-03-18T14:10:15.511Z,3.00
2018-03-18T14:12:44.307Z,3.12
2018-03-18T14:15:13.121Z,3.03
2018-03-18T14:17:41.975Z,2.95
2018-03-18T14:20:10.796Z,3.72
2018-03-18T14:22:39.542Z,2.80
2018-03-18T14:25:08.335Z,3.22
2018-03-18T14:27:37.134Z,3.30
2018-03-18T14:30:05.918Z,3.33
2018-03-18T14:32:34.717Z,3.33
2018-03-18T14:35:03.622Z,2.10
2018-03-18T14:37:32.394Z,3.17
2018-03-18T14:40:01.182Z,3.10
2018-03-18T14:42:29.970Z,3.15
2018-03-18T14:44:58.770Z,3.30
2018-03-18T14:47:27.556Z,3.75
2018-03-18T14:49:57.314Z,3.00
2018-03-18T14:52:26.091Z,3.40
2018-03-18T14:54:54.887Z,2.75
2018-03-18T14:57:23.671Z,3.95
2018-03-18T14:59:52.541Z,3.65
2018-03-18T15:02:21.322Z,3.70
2018-03-18T15:04:50.162Z,6.12
2018-03-18T15:07:18.950Z,2.87
2018-03-18T15:09:47.738Z,3.25
2018-03-18T15:12:16.546Z,3.65
2018-03-18T15:14:45.334Z,3.05
2018-03-18T15:17:14.114Z,3.40
2018-03-18T15:19:42.906Z,3.35
2018-03-18T15:22:11.687Z,3.40
2018-03-18T15:24:40.477Z,2.70
2018-03-18T15:27:09.263Z,5.97
2018-03-18T15:29:38.070Z,3.25
2018-03-18T15:32:06.860Z,3.10
2018-03-18T15:34:35.646Z,3.30
2018-03-18T15:37:04.750Z,3.35
2018-03-18T15:39:33.538Z,3.35
2018-03-18T15:42:02.325Z,3.58
2018-03-18T15:44:31.118Z,3.30
2018-03-18T15:46:59.910Z,4.03
2018-03-18T15:49:28.714Z,3.25
2018-03-18T15:51:57.498Z,3.30
2018-03-18T15:54:26.293Z,3.47
2018-03-18T15:56:55.078Z,3.60
2018-03-18T15:59:23.875Z,3.60
2018-03-18T16:01:52.663Z,4.00
2018-03-18T16:04:21.465Z,3.67
2018-03-18T16:06:50.250Z,3.28
2018-03-18T16:09:19.043Z,3.97
2018-03-18T16:11:47.838Z,3.22
2018-03-18T16:14:16.623Z,3.55
2018-03-18T16:16:46.234Z,3.92
2018-03-18T16:19:15.022Z,3.20
2018-03-18T16:21:43.811Z,3.80
2018-03-18T16:24:12.593Z,3.50
2018-03-18T16:26:41.388Z,3.12
2018-03-18T16:29:16.042Z,3.35
2018-03-18T16:31:44.822Z,3.15
2018-03-18T16:34:13.630Z,3.28
2018-03-18T16:36:42.445Z,2.72
2018-03-18T16:39:11.210Z,3.25
2018-03-18T16:41:40.061Z,3.00
2018-03-18T16:44:08.817Z,3.30
2018-03-18T16:46:37.596Z,3.05
2018-03-18T16:49:06.369Z,3.47
2018-03-18T16:51:35.162Z,3.35
2018-03-18T16:54:04.102Z,3.40
2018-03-18T16:56:32.894Z,3.00
2018-03-18T16:59:01.687Z,3.50
2018-03-18T17:01:30.485Z,3.72
2018-03-18T17:03:59.312Z,3.40
2018-03-18T17:06:28.103Z,2.90
2018-03-18T17:08:56.887Z,2.90
2018-03-18T17:14:01.126Z,3.60
2018-03-18T17:16:29.952Z,3.47
2018-03-18T17:18:58.873Z,3.03
2018-03-18T17:21:27.725Z,3.30
2018-03-18T17:23:56.559Z,2.80
2018-03-18T17:26:25.354Z,3.35
2018-03-18T17:28:54.162Z,3.00
2018-03-18T17:31:22.930Z,3.70
2018-03-18T17:33:51.714Z,3.30
2018-03-18T17:36:20.539Z,3.70
2018-03-18T17:38:49.281Z,3.28
2018-03-18T17:41:18.064Z,3.53
2018-03-18T17:43:46.851Z,3.22
2018-03-18T17:46:21.635Z,2.95
2018-03-18T17:48:56.327Z,3.55
2018-03-18T17:51:31.067Z,3.62
2018-03-18T17:54:05.742Z,3.00
2018-03-18T17:56:35.427Z,3.67
2018-03-18T17:59:04.225Z,3.17
2018-03-18T18:01:33.003Z,2.60
2018-03-18T18:04:01.794Z,2.87
2018-03-18T18:06:30.570Z,3.80
2018-03-18T18:08:59.361Z,3.15
2018-03-18T18:11:28.152Z,3.05
2018-03-18T18:13:56.930Z,3.42
2018-03-18T18:16:25.720Z,2.97
2018-03-18T18:18:54.507Z,3.20
2018-03-18T18:21:23.296Z,3.97
2018-03-18T18:23:52.081Z,3.30
2018-03-18T18:26:20.864Z,2.97
2018-03-18T18:28:49.663Z,3.30
2018-03-18T18:31:18.454Z,3.50
2018-03-18T18:33:47.242Z,3.03
2018-03-18T18:36:16.029Z,3.17
2018-03-18T18:38:44.818Z,4.00
2018-03-18T18:41:13.607Z,3.42
2018-03-18T18:43:42.399Z,3.35
2018-03-18T18:46:11.185Z,2.80
2018-03-18T18:48:40.030Z,3.33
2018-03-18T18:51:08.811Z,3.37
2018-03-18T18:53:37.678Z,3.67
2018-03-18T18:56:06.509Z,2.95
2018-03-18T18:58:35.283Z,3.30
2018-03-18T19:01:04.091Z,3.60
2018-03-18T19:03:32.871Z,3.37
2018-03-18T19:06:01.659Z,3.55
2018-03-18T19:08:30.450Z,3.15
2018-03-18T19:10:59.246Z,3.35
2018-03-18T19:13:28.026Z,3.35
2018-03-18T19:15:56.825Z,3.40
2018-03-18T19:18:25.611Z,3.00
2018-03-18T19:20:54.398Z,3.47
2018-03-18T19:23:23.184Z,2.87
2018-03-18T19:25:51.974Z,3.37
2018-03-18T19:28:21.714Z,3.33
2018-03-18T19:30:50.498Z,3.03
2018-03-18T19:33:19.278Z,3.33
2018-03-18T19:35:48.066Z,3.03
2018-03-18T19:38:17.322Z,3.50
2018-03-18T19:40:46.414Z,3.30
2018-03-18T19:43:16.023Z,3.30
2018-03-18T19:45:44.814Z,3.37
2018-03-18T19:48:13.599Z,3.20
2018-03-18T19:50:42.420Z,3.62
2018-03-18T19:53:11.204Z,3.20
2018-03-18T19:55:39.994Z,3.12
2018-03-18T19:58:08.815Z,3.50
2018-03-18T20:00:37.603Z,3.12
2018-03-18T20:03:06.402Z,3.15
2018-03-18T20:05:35.196Z,3.33
2018-03-18T20:08:03.987Z,3.87
2018-03-18T20:10:32.818Z,3.70
2018-03-18T20:13:01.610Z,4.37
2018-03-18T20:15:30.399Z,3.17
2018-03-18T20:17:59.187Z,2.78
2018-03-18T20:20:28.086Z,2.95
2018-03-18T20:22:56.876Z,3.05
2018-03-18T20:25:25.655Z,2.70
2018-03-18T20:27:54.446Z,3.20
2018-03-18T20:30:23.231Z,3.37
2018-03-18T20:32:52.030Z,3.83
2018-03-18T20:35:20.810Z,3.30
2018-03-18T20:37:49.603Z,3.30
2018-03-18T20:40:18.386Z,3.72
2018-03-18T20:42:47.174Z,4.00
2018-03-18T20:45:15.946Z,3.40
2018-03-18T20:47:44.740Z,3.30
2018-03-18T20:50:13.514Z,3.40
2018-03-18T20:52:42.323Z,3.35
2018-03-18T20:55:11.110Z,3.75
2018-03-18T20:57:39.911Z,3.53
2018-03-18T21:00:08.691Z,3.25
2018-03-18T21:02:37.469Z,3.97
2018-03-18T21:05:06.263Z,3.40
2018-03-18T21:07:35.050Z,3.42
2018-03-18T21:10:03.953Z,3.22
2018-03-18T21:12:32.731Z,3.30
2018-03-18T21:15:01.514Z,2.87
2018-03-18T21:17:30.298Z,3.70
2018-03-18T21:19:59.157Z,3.75
2018-03-18T21:22:27.926Z,3.25
2018-03-18T21:24:56.722Z,2.83
2018-03-18T21:27:25.502Z,3.62
2018-03-18T21:29:54.295Z,3.65
2018-03-18T21:32:23.092Z,3.40
2018-03-18T21:34:51.889Z,2.85
2018-03-18T21:37:20.686Z,3.45
2018-03-18T21:39:49.489Z,3.33
2018-03-18T21:42:18.250Z,3.65
2018-03-18T21:44:47.059Z,3.50
2018-03-18T21:47:15.847Z,3.50
2018-03-18T21:49:44.635Z,3.55
2018-03-18T21:52:13.422Z,3.53
2018-03-18T21:54:42.226Z,3.75
2018-03-18T21:57:11.017Z,3.12
2018-03-18T21:59:39.887Z,3.55
2018-03-18T22:02:08.678Z,3.80
2018-03-18T22:04:37.464Z,3.47
2018-03-18T22:07:06.257Z,3.35
2018-03-18T22:09:35.041Z,3.55
2018-03-18T22:12:03.837Z,4.03
2018-03-18T22:14:32.614Z,3.50
2018-03-18T22:17:01.410Z,3.42
2018-03-18T22:19:30.189Z,3.78
2018-03-18T22:21:58.988Z,3.67
2018-03-18T22:24:27.774Z,3.53
2018-03-18T22:26:56.583Z,3.72
2018-03-18T22:29:25.379Z,3.80
2018-03-18T22:31:54.183Z,3.25
2018-03-18T22:34:22.970Z,3.45
2018-03-18T22:36:51.763Z,3.55
2018-03-18T22:39:20.592Z,3.40
2018-03-18T22:41:49.326Z,3.55
2018-03-18T22:44:18.151Z,3.20
2018-03-18T22:46:46.905Z,3.47
2018-03-18T22:49:15.711Z,3.30
2018-03-18T22:51:44.487Z,3.58
2018-03-18T22:54:13.266Z,3.60
2018-03-18T22:56:42.058Z,3.90
2018-03-18T22:59:10.838Z,3.45
2018-03-18T23:01:39.623Z,3.28
2018-03-18T23:04:08.410Z,3.97
2018-03-18T23:06:37.203Z,4.07
2018-03-18T23:09:06.010Z,3.55
2018-03-18T23:11:34.789Z,3.65
2018-03-18T23:14:03.570Z,3.80
2018-03-18T23:16:32.390Z,3.70
2018-03-18T23:19:01.170Z,3.70
2018-03-18T23:21:29.958Z,4.37
2018-03-18T23:23:58.745Z,3.80
2018-03-18T23:26:27.537Z,3.28
2018-03-18T23:28:56.326Z,3.97
2018-03-18T23:31:25.127Z,3.70
2018-03-18T23:33:53.916Z,3.70
2018-03-18T23:36:22.698Z,3.60
2018-03-18T23:38:51.487Z,3.78
2018-03-18T23:41:20.266Z,3.50
2018-03-18T23:43:49.069Z,3.95
2018-03-18T23:46:17.848Z,4.47
2018-03-18T23:48:46.634Z,3.75
2018-03-18T23:51:15.418Z,3.67
2018-03-18T23:53:44.210Z,3.83
2018-03-18T23:56:12.998Z,3.70
2018-03-18T23:58:41.774Z,3.70
